createdAt,value
2023-02-11T00:02:11.558Z,13.95
2023-02-11T00:04:40.263Z,13.32
2023-02-11T00:07:07.646Z,13.40
2023-02-11T00:09:35.047Z,14.20
2023-02-11T00:12:02.424Z,14.32
2023-02-11T00:14:29.971Z,13.65
2023-02-11T00:16:57.389Z,14.95
2023-02-11T00:19:24.821Z,14.00
2023-02-11T00:21:53.523Z,14.27
2023-02-11T00:24:20.953Z,14.20
2023-02-11T00:26:48.322Z,14.50
2023-02-11T00:29:16.004Z,15.15
2023-02-11T00:31:43.558Z,14.18
2023-02-11T00:34:11.005Z,15.05
2023-02-11T00:36:38.400Z,15.15
2023-02-11T00:39:07.470Z,15.82
2023-02-11T00:41:34.971Z,15.73
2023-02-11T00:44:02.580Z,15.82
2023-02-11T00:46:30.181Z,15.60
2023-02-11T00:48:57.901Z,15.48
2023-02-11T00:51:25.433Z,16.10
2023-02-11T00:53:52.798Z,15.90
2023-02-11T00:56:21.529Z,16.38
2023-02-11T00:58:48.935Z,16.35
2023-02-11T01:01:16.404Z,16.58
2023-02-11T01:03:43.808Z,15.52
2023-02-11T01:06:11.327Z,15.70
2023-02-11T01:08:38.749Z,16.17
2023-02-11T01:11:07.738Z,16.42
2023-02-11T01:13:37.033Z,15.75
2023-02-11T01:16:04.991Z,15.80
2023-02-11T01:18:32.412Z,15.98
2023-02-11T01:20:59.828Z,15.77
2023-02-11T01:23:27.207Z,16.08
2023-02-11T01:25:54.889Z,15.55
2023-02-11T01:28:23.911Z,16.58
2023-02-11T01:30:52.707Z,16.40
2023-02-11T01:33:20.099Z,15.48
2023-02-11T01:35:47.557Z,17.55
2023-02-11T01:38:16.417Z,16.60
2023-02-11T01:40:48.090Z,16.58
2023-02-11T01:43:15.471Z,16.27
2023-02-11T01:45:56.763Z,16.70
2023-02-11T01:48:26.123Z,16.38
2023-02-11T01:50:55.043Z,16.77
2023-02-11T01:53:40.296Z,16.65
2023-02-11T01:56:25.659Z,16.75
2023-02-11T01:58:53.174Z,16.20
2023-02-11T02:01:24.363Z,15.35
2023-02-11T02:03:52.650Z,16.88
2023-02-11T02:06:21.068Z,15.73
2023-02-11T02:08:51.283Z,15.55
2023-02-11T02:13:46.014Z,15.88
2023-02-11T02:16:14.236Z,15.38
2023-02-11T02:18:47.632Z,15.20
2023-02-11T02:21:46.223Z,14.68
2023-02-11T02:24:49.666Z,13.73
2023-02-11T02:27:23.186Z,14.45
2023-02-11T02:30:31.721Z,14.60
2023-02-11T02:33:21.658Z,16.05
2023-02-11T02:35:54.628Z,14.27
2023-02-11T02:38:24.137Z,14.00
2023-02-11T02:40:53.464Z,11.13
2023-02-11T02:43:20.892Z,14.90
2023-02-11T02:45:48.680Z,14.57
2023-02-11T02:48:28.607Z,14.02
2023-02-11T02:51:00.267Z,14.13
2023-02-11T02:53:30.602Z,13.38
2023-02-11T02:56:01.348Z,13.52
2023-02-11T02:58:52.127Z,13.00
2023-02-11T03:01:25.637Z,13.75
2023-02-11T03:03:56.676Z,13.27
2023-02-11T03:06:26.623Z,14.45
2023-02-11T03:08:56.038Z,14.40
2023-02-11T03:11:23.420Z,13.60
2023-02-11T03:13:50.809Z,14.30
2023-02-11T03:16:20.483Z,13.40
2023-02-11T03:18:50.556Z,13.73
2023-02-11T03:21:19.286Z,14.10
2023-02-11T03:23:49.377Z,12.90
2023-02-11T03:26:19.216Z,14.18
2023-02-11T03:28:49.653Z,14.30
2023-02-11T03:31:19.476Z,13.27
2023-02-11T03:33:51.768Z,14.00
2023-02-11T03:36:21.669Z,14.35
2023-02-11T03:38:50.117Z,14.13
2023-02-11T03:41:18.504Z,13.68
2023-02-11T03:43:46.458Z,14.40
2023-02-11T03:46:14.077Z,13.93
2023-02-11T03:48:42.306Z,14.18
2023-02-11T03:51:10.475Z,14.80
2023-02-11T03:53:39.800Z,15.60
2023-02-11T03:56:08.605Z,13.67
2023-02-11T03:58:35.984Z,13.93
2023-02-11T04:01:04.985Z,13.15
2023-02-11T04:03:33.088Z,13.00
2023-02-11T04:06:00.490Z,13.25
2023-02-11T04:08:27.900Z,13.15
2023-02-11T04:10:56.580Z,13.70
2023-02-11T04:13:23.982Z,12.65
2023-02-11T04:15:51.688Z,12.20
2023-02-11T04:18:19.205Z,12.93
2023-02-11T04:20:46.586Z,13.85
2023-02-11T04:23:13.969Z,12.30
2023-02-11T04:25:41.343Z,12.70
2023-02-11T04:28:10.095Z,12.48
2023-02-11T04:30:37.466Z,12.25
2023-02-11T04:33:04.840Z,12.50
2023-02-11T04:35:32.214Z,12.70
2023-02-11T04:37:59.620Z,11.98
2023-02-11T04:40:27.829Z,11.30
2023-02-11T04:42:55.300Z,11.23
2023-02-11T04:45:23.990Z,11.70
2023-02-11T04:47:51.592Z,11.35
2023-02-11T04:50:19.167Z,11.05
2023-02-11T04:52:46.556Z,11.05
2023-02-11T04:55:14.051Z,11.50
2023-02-11T04:57:41.442Z,11.57
2023-02-11T05:00:10.542Z,11.75
2023-02-11T05:02:39.262Z,11.90
2023-02-11T05:05:06.972Z,11.35
2023-02-11T05:07:34.350Z,11.63
2023-02-11T05:10:01.726Z,11.52
2023-02-11T05:12:29.163Z,11.63
2023-02-11T05:14:56.577Z,10.52
2023-02-11T05:17:24.201Z,11.32
2023-02-11T05:19:52.880Z,11.35
2023-02-11T05:22:21.758Z,11.73
2023-02-11T05:24:49.140Z,12.10
2023-02-11T05:27:16.573Z,10.88
2023-02-11T05:29:43.966Z,11.98
2023-02-11T05:32:12.076Z,11.38
2023-02-11T05:34:39.565Z,11.68
2023-02-11T05:37:08.327Z,11.90
2023-02-11T05:39:35.793Z,11.90
2023-02-11T05:42:03.168Z,13.18
2023-02-11T05:44:30.578Z,13.10
2023-02-11T05:46:57.956Z,11.38
2023-02-11T05:49:25.347Z,12.48
2023-02-11T05:51:52.730Z,13.07
2023-02-11T05:54:21.480Z,13.00
2023-02-11T05:56:48.885Z,13.13
2023-02-11T05:59:16.283Z,13.68
2023-02-11T06:01:43.714Z,12.82
2023-02-11T06:04:11.130Z,13.50
2023-02-11T06:06:38.542Z,14.57
2023-02-11T06:09:05.964Z,14.45
2023-02-11T06:11:34.680Z,13.38
2023-02-11T06:14:02.256Z,14.73
2023-02-11T06:16:29.709Z,14.02
2023-02-11T06:18:57.176Z,13.68
2023-02-11T06:21:30.799Z,14.57
2023-02-11T06:24:08.255Z,15.25
2023-02-11T06:26:36.950Z,15.52
2023-02-11T06:29:04.391Z,16.02
2023-02-11T06:31:31.898Z,15.50
2023-02-11T06:33:59.387Z,15.30
2023-02-11T06:36:26.847Z,16.70
2023-02-11T06:38:54.336Z,15.85
2023-02-11T06:41:21.773Z,16.25
2023-02-11T06:43:50.520Z,16.92
2023-02-11T06:46:17.941Z,16.98
2023-02-11T06:48:45.399Z,16.63
2023-02-11T06:51:13.592Z,15.80
2023-02-11T06:53:41.855Z,17.23
2023-02-11T06:56:10.236Z,16.80
2023-02-11T06:58:37.839Z,18.15
2023-02-11T07:01:07.464Z,17.45
2023-02-11T07:03:36.169Z,17.55
2023-02-11T07:06:03.616Z,16.98
2023-02-11T07:08:31.044Z,17.75
2023-02-11T07:10:58.410Z,18.52
2023-02-11T07:13:25.812Z,18.52
2023-02-11T07:15:53.431Z,17.48
2023-02-11T07:18:22.284Z,18.17
2023-02-11T07:20:49.664Z,19.10
2023-02-11T07:23:17.054Z,18.80
2023-02-11T07:25:44.427Z,18.33
2023-02-11T07:28:11.861Z,18.90
2023-02-11T07:30:39.269Z,18.83
2023-02-11T07:33:06.650Z,19.58
2023-02-11T07:35:35.355Z,19.17
2023-02-11T07:38:02.757Z,20.02
2023-02-11T07:40:31.458Z,19.80
2023-02-11T07:42:58.850Z,20.25
2023-02-11T07:45:26.260Z,19.90
2023-02-11T07:47:53.636Z,20.00
2023-02-11T07:50:21.020Z,19.33
2023-02-11T07:52:49.738Z,19.70
2023-02-11T07:55:17.229Z,18.70
2023-02-11T07:57:45.308Z,19.95
2023-02-11T08:00:14.090Z,19.73
2023-02-11T08:02:41.514Z,20.20
2023-02-11T08:05:09.196Z,19.45
2023-02-11T08:07:36.590Z,19.70
2023-02-11T08:10:05.884Z,19.58
2023-02-11T08:12:33.261Z,20.03
2023-02-11T08:15:00.678Z,20.48
2023-02-11T08:17:28.061Z,19.95
2023-02-11T08:19:55.498Z,20.27
2023-02-11T08:22:22.895Z,19.98
2023-02-11T08:24:52.396Z,19.60
2023-02-11T08:27:21.211Z,15.95
2023-02-11T08:29:48.837Z,20.73
2023-02-11T08:32:16.282Z,20.92
2023-02-11T08:34:43.706Z,22.10
2023-02-11T08:37:11.119Z,20.88
2023-02-11T08:39:38.608Z,21.27
2023-02-11T08:42:06.093Z,19.67
2023-02-11T08:44:34.803Z,20.35
2023-02-11T08:47:02.192Z,19.50
2023-02-11T08:49:30.519Z,20.88
2023-02-11T08:52:02.083Z,19.95
2023-02-11T08:54:29.476Z,20.20
2023-02-11T08:56:56.886Z,20.10
2023-02-11T08:59:24.427Z,20.92
2023-02-11T09:01:53.276Z,20.30
2023-02-11T09:04:20.793Z,20.42
2023-02-11T09:06:48.162Z,21.08
2023-02-11T09:09:16.174Z,20.08
2023-02-11T09:11:44.396Z,20.88
2023-02-11T09:14:16.371Z,20.42
2023-02-11T09:16:43.865Z,19.42
2023-02-11T09:19:12.713Z,20.20
2023-02-11T09:21:40.139Z,20.85
2023-02-11T09:24:07.690Z,20.95
2023-02-11T09:26:35.808Z,19.60
2023-02-11T09:29:03.298Z,19.63
2023-02-11T09:31:31.294Z,18.55
2023-02-11T09:33:59.657Z,19.58
2023-02-11T09:36:29.570Z,20.25
2023-02-11T09:38:56.996Z,17.60
2023-02-11T09:41:32.029Z,19.10
2023-02-11T09:43:59.913Z,19.17
2023-02-11T09:46:27.621Z,18.85
2023-02-11T09:48:55.704Z,19.48
2023-02-11T09:51:36.706Z,20.08
2023-02-11T09:54:06.295Z,18.98
2023-02-11T09:56:33.659Z,18.17
2023-02-11T09:59:01.049Z,19.50
2023-02-11T10:01:30.829Z,19.92
2023-02-11T10:04:02.526Z,19.95
2023-02-11T10:06:39.252Z,20.85
2023-02-11T10:09:22.667Z,20.42
2023-02-11T10:11:53.476Z,20.08
2023-02-11T10:14:28.183Z,19.10
2023-02-11T10:17:00.690Z,19.33
2023-02-11T10:19:40.202Z,19.08
2023-02-11T10:22:11.396Z,18.88
2023-02-11T10:24:38.779Z,19.60
2023-02-11T10:27:13.448Z,21.33
2023-02-11T10:29:41.982Z,20.42
2023-02-11T10:32:16.635Z,18.85
2023-02-11T10:34:44.044Z,18.98
2023-02-11T10:37:13.667Z,19.55
2023-02-11T10:39:41.507Z,14.40
2023-02-11T10:42:10.561Z,19.90
2023-02-11T10:44:38.811Z,19.77
2023-02-11T10:47:10.080Z,19.70
2023-02-11T10:49:39.192Z,18.58
2023-02-11T10:52:24.805Z,20.48
2023-02-11T10:55:03.091Z,19.13
2023-02-11T10:57:34.621Z,18.27
2023-02-11T11:00:06.278Z,18.92
2023-02-11T11:02:35.571Z,17.63
2023-02-11T11:05:04.260Z,18.90
2023-02-11T11:07:33.766Z,18.58
2023-02-11T11:10:02.507Z,17.92
2023-02-11T11:12:33.041Z,17.60
2023-02-11T11:15:01.582Z,16.58
2023-02-11T11:17:29.420Z,16.15
2023-02-11T11:20:14.897Z,17.42
2023-02-11T11:22:43.590Z,16.63
2023-02-11T11:25:22.414Z,16.05
2023-02-11T11:27:50.410Z,17.70
2023-02-11T11:30:18.396Z,17.02
2023-02-11T11:32:45.773Z,16.48
2023-02-11T11:35:22.662Z,16.08
2023-02-11T11:37:54.632Z,15.95
2023-02-11T11:40:23.844Z,15.82
2023-02-11T11:43:04.334Z,14.60
2023-02-11T11:45:31.728Z,15.65
2023-02-11T11:47:59.871Z,15.00
2023-02-11T11:50:28.505Z,16.67
2023-02-11T11:53:05.407Z,14.90
2023-02-11T11:55:35.929Z,14.57
2023-02-11T11:58:03.314Z,15.25
2023-02-11T12:00:34.816Z,14.75
2023-02-11T12:03:16.757Z,14.27
2023-02-11T12:05:46.121Z,15.57
2023-02-11T12:08:17.640Z,13.48
2023-02-11T12:11:02.616Z,14.35
2023-02-11T12:13:40.344Z,13.88
2023-02-11T12:16:13.982Z,13.93
2023-02-11T12:18:50.807Z,13.18
2023-02-11T12:21:24.923Z,13.70
2023-02-11T12:24:01.049Z,12.85
2023-02-11T12:26:30.343Z,13.25
2023-02-11T12:29:03.843Z,12.93
2023-02-11T12:31:38.730Z,12.98
2023-02-11T12:34:37.499Z,12.73
2023-02-11T12:37:08.160Z,12.35
2023-02-11T12:39:42.089Z,12.00
2023-02-11T12:42:36.816Z,12.23
2023-02-11T12:45:10.233Z,12.60
2023-02-11T12:47:42.576Z,13.15
2023-02-11T12:50:14.812Z,12.05
2023-02-11T12:52:50.047Z,12.05
2023-02-11T12:55:21.288Z,11.90
2023-02-11T12:57:48.792Z,11.27
2023-02-11T13:00:18.431Z,11.07
2023-02-11T13:02:48.022Z,12.18
2023-02-11T13:05:23.285Z,11.88
2023-02-11T13:07:51.696Z,11.88
2023-02-11T13:10:26.667Z,11.95
2023-02-11T13:13:11.935Z,10.85
2023-02-11T13:15:39.309Z,11.68
2023-02-11T13:18:13.964Z,10.93
2023-02-11T13:20:42.454Z,11.15
2023-02-11T13:23:14.689Z,11.43
2023-02-11T13:25:47.031Z,10.88
2023-02-11T13:28:21.533Z,11.20
2023-02-11T13:30:57.278Z,10.80
2023-02-11T13:33:33.552Z,11.40
2023-02-11T13:36:23.855Z,10.38
2023-02-11T13:39:02.075Z,10.52
2023-02-11T13:41:35.751Z,10.82
2023-02-11T13:44:06.366Z,11.40
2023-02-11T13:46:50.680Z,12.23
2023-02-11T13:49:22.130Z,10.90
2023-02-11T13:51:49.548Z,11.40
2023-02-11T13:54:23.442Z,10.80
2023-02-11T13:57:23.639Z,9.90
2023-02-11T14:02:42.959Z,10.15
2023-02-11T14:05:42.767Z,11.27
2023-02-11T14:08:41.205Z,11.88
2023-02-11T14:11:43.038Z,10.93
2023-02-11T14:14:23.702Z,11.40
2023-02-11T14:17:32.244Z,10.55
2023-02-11T14:19:59.932Z,11.65
2023-02-11T14:22:28.692Z,11.05
2023-02-11T14:24:57.661Z,10.68
2023-02-11T14:27:29.087Z,11.52
2023-02-11T14:30:14.841Z,10.93
2023-02-11T14:32:49.556Z,10.80
2023-02-11T14:35:20.579Z,11.80
2023-02-11T14:37:50.914Z,11.70
2023-02-11T14:40:24.115Z,12.27
2023-02-11T14:42:51.875Z,12.27
2023-02-11T14:45:20.717Z,11.55
2023-02-11T14:47:52.963Z,10.90
2023-02-11T14:50:26.122Z,11.40
2023-02-11T14:52:53.510Z,11.70
2023-02-11T14:55:29.151Z,11.35
2023-02-11T14:58:09.603Z,11.45
2023-02-11T15:00:37.371Z,11.80
2023-02-11T15:03:06.103Z,11.85
2023-02-11T15:05:33.494Z,11.20
2023-02-11T15:08:02.796Z,11.35
2023-02-11T15:10:32.003Z,11.03
2023-02-11T15:13:00.000Z,10.13
2023-02-11T15:15:27.453Z,10.80
2023-02-11T15:20:20.694Z,12.13
2023-02-11T15:22:48.064Z,10.80
2023-02-11T15:25:19.412Z,10.82
2023-02-11T15:27:48.310Z,10.68
2023-02-11T15:30:26.116Z,11.18
2023-02-11T15:32:57.961Z,10.32
2023-02-11T15:35:28.438Z,10.57
2023-02-11T15:37:57.221Z,10.60
2023-02-11T15:40:25.046Z,10.88
2023-02-11T15:42:58.966Z,10.90
2023-02-11T15:45:29.573Z,10.73
2023-02-11T15:48:01.100Z,10.45
2023-02-11T15:50:31.448Z,10.25
2023-02-11T15:53:00.482Z,11.43
2023-02-11T15:55:28.002Z,10.10
2023-02-11T15:57:56.576Z,10.85
2023-02-11T16:00:24.785Z,10.43
2023-02-11T16:02:52.355Z,11.05
2023-02-11T16:05:30.322Z,10.20
2023-02-11T16:07:57.819Z,12.52
2023-02-11T16:10:26.846Z,10.25
2023-02-11T16:13:02.921Z,10.32
2023-02-11T16:15:47.425Z,10.55
2023-02-11T16:18:37.344Z,10.00
2023-02-11T16:21:07.618Z,11.05
2023-02-11T16:23:36.078Z,9.80
2023-02-11T16:26:08.320Z,10.48
2023-02-11T16:28:36.757Z,10.63
2023-02-11T16:31:04.391Z,10.55
2023-02-11T16:33:31.837Z,9.60
2023-02-11T16:36:01.994Z,10.80
2023-02-11T16:40:58.690Z,10.77
2023-02-11T16:43:26.289Z,10.95
2023-02-11T16:45:53.785Z,10.07
2023-02-11T16:48:21.214Z,10.52
2023-02-11T16:50:52.867Z,11.13
2023-02-11T16:53:23.208Z,9.85
2023-02-11T16:55:51.926Z,10.05
2023-02-11T16:58:19.388Z,9.55
2023-02-11T17:00:47.302Z,9.43
2023-02-11T17:03:17.457Z,10.05
2023-02-11T17:08:22.985Z,9.85
2023-02-11T17:10:52.051Z,10.27
2023-02-11T17:13:19.576Z,9.15
2023-02-11T17:15:46.944Z,10.05
2023-02-11T17:18:14.840Z,9.82
2023-02-11T17:20:42.454Z,9.85
2023-02-11T17:23:09.832Z,10.32
2023-02-11T17:25:37.646Z,9.77
2023-02-11T17:28:06.688Z,9.75
2023-02-11T17:30:34.151Z,10.50
2023-02-11T17:33:01.553Z,10.63
2023-02-11T17:35:29.214Z,10.93
2023-02-11T17:37:58.154Z,9.63
2023-02-11T17:40:25.518Z,10.25
2023-02-11T17:42:52.932Z,9.95
2023-02-11T17:45:22.520Z,10.00
2023-02-11T17:47:50.029Z,9.90
2023-02-11T17:50:17.450Z,9.77
2023-02-11T17:52:44.875Z,10.00
2023-02-11T17:55:12.265Z,10.15
2023-02-11T17:57:39.649Z,10.35
2023-02-11T18:00:08.060Z,11.25
2023-02-11T18:02:36.760Z,10.05
2023-02-11T18:05:04.409Z,9.90
2023-02-11T18:07:31.947Z,9.98
2023-02-11T18:09:59.313Z,8.73
2023-02-11T18:12:26.708Z,9.73
2023-02-11T18:14:56.788Z,9.90
2023-02-11T18:17:25.219Z,10.15
2023-02-11T18:19:56.028Z,9.90
2023-02-11T18:22:24.510Z,10.10
2023-02-11T18:24:52.615Z,9.82
2023-02-11T18:27:20.142Z,10.88
2023-02-11T18:29:47.514Z,10.20
2023-02-11T18:32:14.900Z,10.10
2023-02-11T18:34:42.280Z,10.57
2023-02-11T18:37:13.177Z,9.70
2023-02-11T18:39:40.806Z,10.60
2023-02-11T18:42:08.174Z,10.43
2023-02-11T18:44:35.624Z,10.73
2023-02-11T18:47:03.040Z,9.88
2023-02-11T18:49:30.404Z,9.90
2023-02-11T18:51:58.893Z,11.13
2023-02-11T18:54:27.609Z,10.82
2023-02-11T18:56:54.998Z,10.52
2023-02-11T18:59:22.371Z,10.20
2023-02-11T19:01:50.995Z,10.70
2023-02-11T19:04:19.883Z,11.38
2023-02-11T19:06:48.161Z,10.60
2023-02-11T19:09:16.332Z,10.65
2023-02-11T19:11:48.762Z,10.85
2023-02-11T19:14:17.172Z,10.90
2023-02-11T19:16:45.873Z,10.90
2023-02-11T19:19:13.515Z,11.05
2023-02-11T19:21:42.435Z,10.95
2023-02-11T19:24:10.485Z,11.30
2023-02-11T19:26:38.056Z,10.35
2023-02-11T19:29:06.838Z,11.60
2023-02-11T19:31:34.493Z,11.32
2023-02-11T19:34:02.285Z,11.70
2023-02-11T19:36:29.725Z,12.27
2023-02-11T19:38:57.106Z,10.88
2023-02-11T19:41:24.499Z,9.85
2023-02-11T19:43:52.798Z,11.95
2023-02-11T19:46:21.639Z,12.25
2023-02-11T19:48:49.161Z,10.73
2023-02-11T19:51:16.659Z,11.52
2023-02-11T19:53:44.239Z,11.27
2023-02-11T19:56:12.580Z,11.65
2023-02-11T19:58:40.143Z,11.30
2023-02-11T20:01:08.530Z,12.18
2023-02-11T20:03:37.335Z,11.93
2023-02-11T20:06:06.307Z,11.43
2023-02-11T20:08:33.942Z,12.48
2023-02-11T20:11:06.652Z,11.82
2023-02-11T20:13:34.753Z,11.45
2023-02-11T20:16:06.752Z,11.30
2023-02-11T20:18:34.179Z,12.00
2023-02-11T20:21:06.585Z,11.55
2023-02-11T20:23:34.113Z,11.88
2023-02-11T20:26:06.093Z,12.20
2023-02-11T20:28:33.514Z,12.57
2023-02-11T20:31:00.988Z,12.15
2023-02-11T20:33:29.731Z,12.23
2023-02-11T20:35:57.676Z,12.43
2023-02-11T20:38:26.413Z,12.75
2023-02-11T20:40:53.872Z,12.20
2023-02-11T20:43:21.441Z,13.00
2023-02-11T20:45:48.962Z,12.00
2023-02-11T20:48:16.378Z,13.05
2023-02-11T20:50:45.427Z,12.48
2023-02-11T20:55:42.777Z,12.82
2023-02-11T20:58:10.157Z,12.65
2023-02-11T21:00:37.885Z,12.85
2023-02-11T21:03:05.487Z,12.48
2023-02-11T21:05:34.343Z,12.93
2023-02-11T21:08:01.768Z,12.80
2023-02-11T21:10:29.159Z,12.50
2023-02-11T21:13:00.300Z,12.18
2023-02-11T21:15:27.726Z,12.23
2023-02-11T21:17:55.183Z,11.90
2023-02-11T21:20:22.655Z,11.88
2023-02-11T21:22:50.041Z,11.77
2023-02-11T21:25:17.423Z,12.32
2023-02-11T21:27:44.782Z,11.95
2023-02-11T21:30:14.294Z,11.95
2023-02-11T21:32:41.653Z,11.65
2023-02-11T21:35:09.406Z,11.38
2023-02-11T21:37:36.772Z,11.57
2023-02-11T21:40:04.261Z,11.55
2023-02-11T21:42:31.830Z,11.43
2023-02-11T21:44:59.215Z,11.45
2023-02-11T21:47:27.886Z,11.70
2023-02-11T21:49:55.284Z,11.10
2023-02-11T21:52:22.652Z,10.52
2023-02-11T21:54:50.417Z,11.07
2023-02-11T21:57:17.886Z,11.07
2023-02-11T21:59:45.258Z,11.98
2023-02-11T22:02:12.618Z,11.02
2023-02-11T22:04:41.339Z,10.82
2023-02-11T22:07:08.724Z,10.98
2023-02-11T22:09:36.101Z,10.80
2023-02-11T22:12:03.599Z,11.38
2023-02-11T22:14:32.386Z,10.82
2023-02-11T22:16:59.895Z,11.10
2023-02-11T22:19:27.289Z,11.02
2023-02-11T22:21:56.020Z,11.45
2023-02-11T22:24:23.410Z,10.88
2023-02-11T22:26:50.786Z,11.23
2023-02-11T22:29:18.178Z,10.65
2023-02-11T22:31:45.586Z,10.30
2023-02-11T22:34:12.969Z,10.85
2023-02-11T22:36:41.952Z,10.63
2023-02-11T22:39:12.518Z,10.60
2023-02-11T22:41:41.088Z,10.85
2023-02-11T22:44:08.490Z,10.93
2023-02-11T22:46:35.980Z,10.07
2023-02-11T22:49:03.392Z,9.93
2023-02-11T22:51:30.962Z,10.02
2023-02-11T22:53:59.289Z,9.93
2023-02-11T22:56:28.861Z,10.85
2023-02-11T22:58:57.706Z,10.40
2023-02-11T23:01:25.133Z,9.65
2023-02-11T23:03:52.536Z,9.50
2023-02-11T23:06:19.937Z,9.93
2023-02-11T23:08:47.355Z,9.63
2023-02-11T23:11:16.176Z,9.05
2023-02-11T23:13:45.223Z,9.45
2023-02-11T23:16:14.089Z,9.50
2023-02-11T23:18:42.424Z,9.88
2023-02-11T23:21:12.512Z,9.80
2023-02-11T23:23:40.122Z,9.25
2023-02-11T23:26:10.048Z,8.48
2023-02-11T23:28:37.524Z,9.52
2023-02-11T23:31:15.276Z,9.50
2023-02-11T23:33:42.734Z,9.10
2023-02-11T23:36:10.293Z,8.70
2023-02-11T23:38:37.668Z,9.07
2023-02-11T23:41:05.443Z,8.55
2023-02-11T23:43:32.887Z,8.88
2023-02-11T23:46:00.373Z,8.85
2023-02-11T23:48:29.079Z,8.50
2023-02-11T23:50:56.459Z,8.25
2023-02-11T23:53:23.832Z,8.30
2023-02-11T23:55:51.211Z,8.98
2023-02-11T23:58:18.576Z,8.48
